Time;durP1;ratioP1;P1;durP2;ratioP2;P2;SDS_P1;SDS_P2;PMS_P1;PMS_P2;Temp;Humidity;BMP_temperature;BMP_pressure;BME280_temperature;BME280_humidity;BME280_pressure;Samples;Min_cycle;Max_cycle;Signal;HPM_P1;HPM_P2
2022/08/25 00:00:59;;;;;;;15.27;7.07;;;;;;;;;;4975463;28;20213;-68
2022/08/25 00:03:25;;;;;;;18.17;6.90;;;;;;;;;;4975464;28;20187;-69
2022/08/25 00:05:51;;;;;;;17.23;7.30;;;;;;;;;;4975565;28;20177;-69
2022/08/25 00:08:17;;;;;;;21.33;6.93;;;;;;;;;;4990517;28;20221;-68
2022/08/25 00:10:43;;;;;;;28.67;7.07;;;;;;;;;;4975216;28;20208;-69
2022/08/25 00:13:09;;;;;;;19.77;6.90;;;;;;;;;;4975060;28;20257;-69
2022/08/25 00:15:36;;;;;;;28.10;7.37;;;;;;;;;;4989537;28;20721;-69
2022/08/25 00:18:01;;;;;;;32.33;6.37;;;;;;;;;;4990298;28;20276;-69
2022/08/25 00:20:28;;;;;;;17.50;4.87;;;;;;;;;;4974936;28;20772;-69
2022/08/25 00:22:55;;;;;;;10.33;4.60;;;;;;;;;;4990079;28;20702;-68
2022/08/25 00:25:22;;;;;;;16.03;5.80;;;;;;;;;;4975385;28;20697;-69
2022/08/25 00:27:49;;;;;;;13.23;5.60;;;;;;;;;;4975374;28;20634;-68
2022/08/25 00:30:16;;;;;;;24.80;6.57;;;;;;;;;;4975386;28;20193;-68
2022/08/25 00:32:42;;;;;;;21.73;5.27;;;;;;;;;;4990120;28;20188;-69
2022/08/25 00:35:08;;;;;;;19.87;6.07;;;;;;;;;;4975247;28;20224;-69
2022/08/25 00:37:36;;;;;;;11.73;5.40;;;;;;;;;;4975293;28;20235;-68
2022/08/25 00:40:03;;;;;;;10.90;5.27;;;;;;;;;;4989812;28;20224;-69
2022/08/25 00:42:30;;;;;;;11.40;5.10;;;;;;;;;;4975692;28;20205;-69
2022/08/25 00:44:57;;;;;;;11.93;4.93;;;;;;;;;;4975178;28;20203;-69
2022/08/25 00:47:23;;;;;;;9.77;5.00;;;;;;;;;;4975963;28;20184;-69
2022/08/25 00:49:56;;;;;;;10.23;5.10;;;;;;;;;;4975230;28;20208;-69
2022/08/25 00:52:22;;;;;;;9.67;5.27;;;;;;;;;;4990047;28;20181;-69
2022/08/25 00:54:56;;;;;;;8.40;5.03;;;;;;;;;;4975470;28;20556;-69
2022/08/25 00:57:24;;;;;;;9.13;5.13;;;;;;;;;;4974868;28;20185;-69
2022/08/25 00:59:50;;;;;;;13.27;4.97;;;;;;;;;;4989543;28;20291;-69
2022/08/25 01:02:16;;;;;;;7.00;5.30;;;;;;;;;;4975089;28;20247;-68
2022/08/25 01:04:43;;;;;;;11.87;5.27;;;;;;;;;;4989716;28;20268;-69
2022/08/25 01:07:09;;;;;;;9.20;4.73;;;;;;;;;;4989548;28;20177;-69
2022/08/25 01:09:35;;;;;;;13.77;5.40;;;;;;;;;;4989788;28;20212;-69
2022/08/25 01:12:01;;;;;;;13.67;5.30;;;;;;;;;;4974984;28;20185;-69
2022/08/25 01:14:30;;;;;;;8.73;4.70;;;;;;;;;;4974934;28;20212;-69
2022/08/25 01:16:57;;;;;;;9.93;4.27;;;;;;;;;;4975091;28;20184;-69
2022/08/25 01:19:24;;;;;;;6.00;4.40;;;;;;;;;;4990008;28;20247;-69
2022/08/25 01:21:51;;;;;;;7.00;4.50;;;;;;;;;;4975299;28;20212;-69
2022/08/25 01:24:24;;;;;;;4.90;3.77;;;;;;;;;;4975352;28;20189;-69
2022/08/25 01:26:50;;;;;;;7.13;4.40;;;;;;;;;;4977844;28;20246;-69
2022/08/25 01:29:24;;;;;;;8.87;4.57;;;;;;;;;;4978877;28;20177;-69
2022/08/25 01:31:56;;;;;;;7.03;4.27;;;;;;;;;;4979269;28;20164;-69
2022/08/25 01:34:22;;;;;;;6.70;4.50;;;;;;;;;;4978817;28;20165;-69
2022/08/25 01:36:48;;;;;;;5.13;4.10;;;;;;;;;;4993840;28;20189;-69
2022/08/25 01:39:14;;;;;;;6.70;4.37;;;;;;;;;;4979393;28;20260;-69
2022/08/25 01:41:58;;;;;;;5.37;4.00;;;;;;;;;;4993215;28;20307;-69
2022/08/25 01:44:24;;;;;;;9.63;4.20;;;;;;;;;;4993054;28;20175;-69
2022/08/25 01:46:51;;;;;;;4.37;3.87;;;;;;;;;;4993151;28;20700;-69
2022/08/25 01:49:17;;;;;;;5.70;4.13;;;;;;;;;;4978330;28;20549;-68
2022/08/25 01:51:46;;;;;;;6.57;4.10;;;;;;;;;;4978092;28;20303;-68
2022/08/25 01:54:12;;;;;;;5.50;3.70;;;;;;;;;;4978173;28;20185;-69
2022/08/25 01:56:38;;;;;;;5.27;3.93;;;;;;;;;;4992638;28;20676;-69
2022/08/25 01:59:04;;;;;;;5.40;3.70;;;;;;;;;;4992721;28;20642;-69
2022/08/25 02:01:30;;;;;;;10.27;3.87;;;;;;;;;;4977663;28;20209;-69
2022/08/25 02:03:56;;;;;;;5.33;3.20;;;;;;;;;;4992537;28;20185;-69
2022/08/25 02:06:27;;;;;;;5.83;3.50;;;;;;;;;;4977875;28;20660;-69
2022/08/25 02:08:54;;;;;;;10.40;3.80;;;;;;;;;;4977751;28;20185;-69
2022/08/25 02:11:22;;;;;;;5.43;3.17;;;;;;;;;;4992456;28;20593;-69
2022/08/25 02:13:48;;;;;;;5.10;3.47;;;;;;;;;;4977444;28;20192;-68
2022/08/25 02:16:16;;;;;;;6.17;4.20;;;;;;;;;;4978139;28;20177;-69
2022/08/25 02:18:42;;;;;;;6.53;3.37;;;;;;;;;;4992482;28;20185;-68
2022/08/25 02:21:09;;;;;;;4.57;3.57;;;;;;;;;;4977582;28;20223;-69
2022/08/25 02:23:35;;;;;;;5.77;3.40;;;;;;;;;;4977461;28;20173;-69
2022/08/25 02:26:01;;;;;;;7.57;3.90;;;;;;;;;;4977287;28;20179;-69
2022/08/25 02:28:27;;;;;;;5.70;3.60;;;;;;;;;;4977342;28;20177;-69
2022/08/25 02:30:53;;;;;;;6.43;3.57;;;;;;;;;;4977472;28;20228;-69
2022/08/25 02:33:19;;;;;;;8.60;3.37;;;;;;;;;;4992419;28;20240;-69
2022/08/25 02:35:45;;;;;;;5.57;3.43;;;;;;;;;;4977438;28;20193;-69
2022/08/25 02:38:11;;;;;;;8.23;3.40;;;;;;;;;;4976199;28;20181;-69
2022/08/25 02:40:37;;;;;;;5.13;3.73;;;;;;;;;;4992171;28;20216;-69
2022/08/25 02:43:04;;;;;;;6.30;3.70;;;;;;;;;;4977072;28;20235;-69
2022/08/25 02:45:30;;;;;;;8.07;3.97;;;;;;;;;;4992278;28;20707;-68
2022/08/25 02:47:56;;;;;;;9.33;3.87;;;;;;;;;;4977363;28;20208;-68
2022/08/25 02:50:22;;;;;;;5.60;3.83;;;;;;;;;;4977028;28;20255;-68
2022/08/25 02:52:50;;;;;;;7.50;3.70;;;;;;;;;;4977055;28;20638;-68
2022/08/25 02:55:16;;;;;;;7.43;3.57;;;;;;;;;;4977211;28;20553;-69
2022/08/25 02:57:42;;;;;;;5.33;3.50;;;;;;;;;;4977214;28;20604;-68
2022/08/25 03:00:09;;;;;;;5.90;3.47;;;;;;;;;;4991978;28;20681;-69
2022/08/25 03:02:36;;;;;;;6.73;3.93;;;;;;;;;;4977123;28;20209;-68
2022/08/25 03:05:02;;;;;;;6.57;4.37;;;;;;;;;;4991965;28;20693;-68
2022/08/25 03:07:29;;;;;;;12.97;4.17;;;;;;;;;;4991794;28;20188;-69
2022/08/25 03:09:55;;;;;;;13.27;4.17;;;;;;;;;;4976878;28;20235;-69
2022/08/25 03:12:21;;;;;;;11.07;4.10;;;;;;;;;;4977166;28;20185;-68
2022/08/25 03:14:47;;;;;;;13.03;4.27;;;;;;;;;;4992315;28;20223;-69
2022/08/25 03:17:13;;;;;;;11.83;4.07;;;;;;;;;;4977561;28;20553;-69
2022/08/25 03:19:39;;;;;;;10.07;4.10;;;;;;;;;;4976740;28;20268;-69
2022/08/25 03:22:05;;;;;;;11.67;4.50;;;;;;;;;;4976069;28;20204;-69
2022/08/25 03:24:32;;;;;;;14.40;4.23;;;;;;;;;;4991064;28;20188;-69
2022/08/25 03:26:58;;;;;;;7.57;4.00;;;;;;;;;;4991881;28;20224;-68
2022/08/25 03:29:32;;;;;;;7.90;3.60;;;;;;;;;;4976537;28;20182;-69
2022/08/25 03:31:58;;;;;;;14.57;4.60;;;;;;;;;;4991512;28;20372;-68
2022/08/25 03:34:26;;;;;;;4.40;3.60;;;;;;;;;;4976834;28;20660;-69
2022/08/25 03:36:53;;;;;;;7.13;3.90;;;;;;;;;;4976545;28;20177;-69
2022/08/25 03:39:20;;;;;;;20.27;5.03;;;;;;;;;;4992014;28;20185;-69
2022/08/25 03:41:46;;;;;;;18.13;5.00;;;;;;;;;;4976890;28;20212;-68
2022/08/25 03:44:12;;;;;;;10.30;3.97;;;;;;;;;;4991515;28;20601;-69
2022/08/25 03:46:42;;;;;;;7.30;4.00;;;;;;;;;;4976909;28;20236;-69
2022/08/25 03:49:10;;;;;;;10.43;4.20;;;;;;;;;;4976459;28;20173;-69
2022/08/25 03:51:41;;;;;;;17.90;4.53;;;;;;;;;;4991647;28;20221;-69
2022/08/25 03:54:09;;;;;;;9.80;4.70;;;;;;;;;;4976918;28;20239;-68
2022/08/25 03:56:35;;;;;;;10.37;5.07;;;;;;;;;;4991705;28;20212;-69
2022/08/25 03:59:01;;;;;;;18.93;5.43;;;;;;;;;;4976614;28;20181;-68
2022/08/25 04:01:27;;;;;;;14.67;5.23;;;;;;;;;;4976394;28;20221;-69
2022/08/25 04:03:53;;;;;;;13.40;6.20;;;;;;;;;;4976820;28;20185;-68
2022/08/25 04:06:19;;;;;;;14.33;5.53;;;;;;;;;;4977071;28;20187;-68
2022/08/25 04:08:45;;;;;;;7.87;5.80;;;;;;;;;;4976957;28;20173;-68
2022/08/25 04:11:12;;;;;;;11.67;5.87;;;;;;;;;;4991660;28;20213;-69
2022/08/25 04:13:38;;;;;;;15.20;6.13;;;;;;;;;;4976706;28;20185;-68
2022/08/25 04:16:15;;;;;;;11.00;6.13;;;;;;;;;;4976656;28;20587;-68
2022/08/25 04:18:41;;;;;;;11.03;5.80;;;;;;;;;;4992269;28;20272;-68
2022/08/25 04:21:08;;;;;;;18.17;6.50;;;;;;;;;;4993461;28;20212;-68
2022/08/25 04:23:35;;;;;;;13.73;6.47;;;;;;;;;;4978165;28;20181;-69
2022/08/25 04:26:01;;;;;;;9.27;5.97;;;;;;;;;;4977638;28;20177;-68
2022/08/25 04:28:28;;;;;;;14.93;6.40;;;;;;;;;;4992597;28;20319;-68
2022/08/25 04:30:54;;;;;;;13.57;6.10;;;;;;;;;;4992192;28;20669;-68
2022/08/25 04:33:20;;;;;;;11.43;6.00;;;;;;;;;;4977000;28;20189;-68
2022/08/25 04:35:47;;;;;;;10.13;5.77;;;;;;;;;;4977302;28;20216;-68
2022/08/25 04:38:13;;;;;;;12.70;6.27;;;;;;;;;;4976576;28;20285;-69
2022/08/25 04:40:38;;;;;;;11.27;5.67;;;;;;;;;;4990925;28;22633;-68
2022/08/25 04:43:04;;;;;;;16.27;6.40;;;;;;;;;;4991036;28;20665;-69
2022/08/25 04:45:30;;;;;;;12.07;6.23;;;;;;;;;;4976632;28;20236;-68
2022/08/25 04:47:59;;;;;;;16.40;6.23;;;;;;;;;;4991283;28;20181;-68
2022/08/25 04:50:25;;;;;;;13.27;6.27;;;;;;;;;;4976039;28;20263;-68
2022/08/25 04:52:51;;;;;;;17.20;6.83;;;;;;;;;;4990752;28;20642;-69
2022/08/25 04:55:17;;;;;;;16.47;6.77;;;;;;;;;;4976039;28;20192;-68
2022/08/25 04:57:43;;;;;;;16.77;6.33;;;;;;;;;;4976353;28;20188;-69
2022/08/25 05:00:09;;;;;;;17.60;6.37;;;;;;;;;;4975717;28;20793;-68
2022/08/25 05:02:35;;;;;;;16.30;7.33;;;;;;;;;;4979580;28;20213;-69
2022/08/25 05:07:32;;;;;;;15.20;7.43;;;;;;;;;;4977391;28;20209;-68
2022/08/25 05:09:58;;;;;;;14.00;6.67;;;;;;;;;;4978987;28;20184;-68
2022/08/25 05:12:24;;;;;;;16.87;6.77;;;;;;;;;;4977013;28;20184;-69
2022/08/25 05:14:52;;;;;;;12.83;6.90;;;;;;;;;;4976990;28;20184;-69
2022/08/25 05:17:18;;;;;;;16.60;7.07;;;;;;;;;;4976608;28;20632;-69
2022/08/25 05:19:44;;;;;;;13.83;7.07;;;;;;;;;;4978072;28;20181;-69
2022/08/25 05:22:11;;;;;;;22.30;6.90;;;;;;;;;;4977793;28;20209;-68
2022/08/25 05:24:37;;;;;;;23.90;6.70;;;;;;;;;;4976817;28;20185;-67
2022/08/25 05:27:03;;;;;;;18.23;7.13;;;;;;;;;;4977920;28;20204;-69
2022/08/25 05:29:29;;;;;;;14.67;7.00;;;;;;;;;;4977979;28;20181;-68
2022/08/25 05:31:55;;;;;;;15.33;7.17;;;;;;;;;;4976520;28;20567;-67
2022/08/25 05:34:21;;;;;;;12.60;6.90;;;;;;;;;;4977909;28;20188;-67
2022/08/25 05:36:47;;;;;;;13.03;7.00;;;;;;;;;;4977548;28;20275;-67
2022/08/25 05:39:14;;;;;;;22.63;7.00;;;;;;;;;;4982364;28;20194;-64
2022/08/25 05:41:40;;;;;;;18.37;7.23;;;;;;;;;;4979727;28;20212;-67
2022/08/25 05:44:06;;;;;;;18.60;7.50;;;;;;;;;;4977659;28;20177;-68
2022/08/25 05:46:32;;;;;;;12.73;6.80;;;;;;;;;;4976169;28;20204;-66
2022/08/25 05:48:58;;;;;;;19.30;6.47;;;;;;;;;;4977657;28;20232;-69
2022/08/25 05:51:25;;;;;;;14.37;6.87;;;;;;;;;;4976198;28;20560;-67
2022/08/25 05:53:51;;;;;;;17.20;7.50;;;;;;;;;;4976968;28;20590;-66
2022/08/25 05:56:17;;;;;;;18.80;6.83;;;;;;;;;;4977382;28;20216;-66
2022/08/25 05:58:43;;;;;;;30.63;7.73;;;;;;;;;;4977222;28;20561;-66
2022/08/25 06:04:02;;;;;;;28.47;7.80;;;;;;;;;;4977964;28;20269;-67
2022/08/25 06:06:28;;;;;;;21.90;7.43;;;;;;;;;;4977382;28;20299;-69
2022/08/25 06:08:54;;;;;;;21.37;8.60;;;;;;;;;;4977508;28;20308;-67
2022/08/25 06:11:20;;;;;;;31.00;8.27;;;;;;;;;;4977901;28;20181;-68
2022/08/25 06:13:46;;;;;;;22.77;7.37;;;;;;;;;;4977752;28;20177;-67
2022/08/25 06:16:12;;;;;;;28.13;7.53;;;;;;;;;;4977111;28;20203;-69
2022/08/25 06:18:38;;;;;;;20.53;7.33;;;;;;;;;;4975558;28;20265;-67
2022/08/25 06:21:11;;;;;;;21.53;7.50;;;;;;;;;;4977157;28;20650;-67
2022/08/25 06:23:38;;;;;;;25.07;6.83;;;;;;;;;;4976813;28;20252;-67
2022/08/25 06:26:04;;;;;;;21.73;6.53;;;;;;;;;;4975376;28;20201;-67
2022/08/25 06:28:30;;;;;;;20.00;7.37;;;;;;;;;;4976630;28;20190;-66
2022/08/25 06:30:59;;;;;;;19.93;6.33;;;;;;;;;;4976763;28;20189;-66
2022/08/25 06:33:25;;;;;;;18.80;7.03;;;;;;;;;;4976508;28;20188;-68
2022/08/25 06:35:54;;;;;;;14.23;7.20;;;;;;;;;;4976910;28;20201;-69
2022/08/25 06:38:20;;;;;;;14.00;6.57;;;;;;;;;;4976386;28;20650;-67
2022/08/25 06:40:50;;;;;;;18.93;6.77;;;;;;;;;;4975963;28;20209;-67
2022/08/25 06:43:16;;;;;;;18.33;6.57;;;;;;;;;;4976541;28;20169;-67
2022/08/25 06:45:46;;;;;;;16.10;6.27;;;;;;;;;;4976335;28;20240;-66
2022/08/25 06:48:12;;;;;;;17.67;7.10;;;;;;;;;;4976353;28;20277;-67
2022/08/25 06:50:39;;;;;;;18.83;6.60;;;;;;;;;;4976040;28;20690;-67
2022/08/25 06:53:05;;;;;;;16.03;6.83;;;;;;;;;;4974860;28;20180;-69
2022/08/25 06:55:33;;;;;;;14.60;6.70;;;;;;;;;;4974761;28;20197;-67
2022/08/25 06:57:59;;;;;;;18.17;6.83;;;;;;;;;;4976514;28;20630;-67
2022/08/25 07:00:25;;;;;;;11.77;6.37;;;;;;;;;;4974974;28;20188;-68
2022/08/25 07:02:51;;;;;;;17.63;6.20;;;;;;;;;;4974991;28;20646;-68
2022/08/25 07:05:17;;;;;;;18.07;7.30;;;;;;;;;;4975776;28;20291;-68
2022/08/25 07:07:45;;;;;;;18.33;6.33;;;;;;;;;;4976229;28;20170;-68
2022/08/25 07:10:11;;;;;;;19.30;6.50;;;;;;;;;;4976167;28;20180;-67
2022/08/25 07:12:37;;;;;;;24.33;7.00;;;;;;;;;;4974656;28;20200;-68
2022/08/25 07:15:04;;;;;;;16.27;5.90;;;;;;;;;;4975792;28;20182;-67
2022/08/25 07:17:30;;;;;;;16.00;6.97;;;;;;;;;;4975738;28;20178;-67
2022/08/25 07:19:56;;;;;;;18.67;6.07;;;;;;;;;;4975810;28;20700;-67
2022/08/25 07:22:22;;;;;;;18.57;6.67;;;;;;;;;;4974322;28;20197;-68
2022/08/25 07:24:48;;;;;;;20.10;6.60;;;;;;;;;;4973812;28;20177;-68
2022/08/25 07:27:14;;;;;;;13.63;6.50;;;;;;;;;;4975545;28;20200;-68
2022/08/25 07:29:40;;;;;;;19.87;6.60;;;;;;;;;;4975601;28;20173;-68
2022/08/25 07:32:06;;;;;;;18.47;6.67;;;;;;;;;;4975443;28;20184;-67
2022/08/25 07:37:18;;;;;;;14.90;5.83;;;;;;;;;;4975432;28;20256;-67
2022/08/25 07:39:44;;;;;;;9.77;5.23;;;;;;;;;;4975370;28;20213;-67
2022/08/25 07:42:12;;;;;;;10.07;5.03;;;;;;;;;;4975180;28;20583;-67
2022/08/25 07:44:37;;;;;;;11.20;5.60;;;;;;;;;;4975747;28;20176;-68
2022/08/25 07:47:03;;;;;;;11.93;5.83;;;;;;;;;;4973865;28;20201;-67
2022/08/25 07:49:29;;;;;;;7.00;5.27;;;;;;;;;;4975332;28;20205;-68
2022/08/25 07:51:56;;;;;;;10.40;5.03;;;;;;;;;;4975445;28;20210;-68
2022/08/25 07:54:23;;;;;;;7.10;5.10;;;;;;;;;;4975062;28;20204;-67
2022/08/25 07:56:49;;;;;;;11.93;5.60;;;;;;;;;;4973796;28;20205;-68
2022/08/25 07:59:15;;;;;;;10.73;5.70;;;;;;;;;;4975091;28;20181;-67
2022/08/25 08:01:41;;;;;;;13.50;6.37;;;;;;;;;;4975412;28;20205;-68
2022/08/25 08:04:07;;;;;;;11.30;5.00;;;;;;;;;;4973630;28;20181;-67
2022/08/25 08:06:33;;;;;;;6.43;5.67;;;;;;;;;;4973523;28;20715;-67
2022/08/25 08:09:01;;;;;;;11.40;5.50;;;;;;;;;;4974880;28;20183;-68
2022/08/25 08:11:29;;;;;;;7.50;5.50;;;;;;;;;;4975006;28;20181;-68
2022/08/25 08:13:56;;;;;;;9.70;5.63;;;;;;;;;;4974786;28;20178;-67
2022/08/25 08:16:22;;;;;;;9.80;5.73;;;;;;;;;;4974636;28;20678;-67
2022/08/25 08:18:48;;;;;;;9.00;5.77;;;;;;;;;;4973417;28;20220;-67
2022/08/25 08:21:16;;;;;;;11.83;6.03;;;;;;;;;;4974926;28;20224;-68
2022/08/25 08:23:43;;;;;;;16.40;5.93;;;;;;;;;;4974757;28;20665;-67
2022/08/25 08:26:09;;;;;;;10.00;5.63;;;;;;;;;;4974637;28;20214;-67
2022/08/25 08:28:35;;;;;;;12.47;5.53;;;;;;;;;;4973557;28;20181;-68
2022/08/25 08:31:01;;;;;;;13.93;6.33;;;;;;;;;;4975034;28;20533;-67
2022/08/25 08:33:27;;;;;;;11.67;6.83;;;;;;;;;;4975262;28;20192;-68
2022/08/25 08:35:58;;;;;;;9.07;5.60;;;;;;;;;;4973769;28;20675;-65
2022/08/25 08:38:24;;;;;;;12.30;5.67;;;;;;;;;;4973252;28;20181;-68
2022/08/25 08:44:07;;;;;;;7.93;5.73;;;;;;;;;;4974138;28;20239;-68
2022/08/25 08:46:42;;;;;;;7.27;5.10;;;;;;;;;;4974208;28;20621;-67
2022/08/25 08:49:21;;;;;;;6.57;4.50;;;;;;;;;;4972955;28;20173;-67
2022/08/25 08:51:53;;;;;;;11.83;5.37;;;;;;;;;;4973047;28;20746;-68
2022/08/25 08:54:23;;;;;;;8.63;5.80;;;;;;;;;;4974572;28;20162;-68
2022/08/25 08:56:52;;;;;;;8.83;5.57;;;;;;;;;;4974165;28;20197;-67
2022/08/25 08:59:27;;;;;;;9.13;5.43;;;;;;;;;;4974444;28;20529;-67
2022/08/25 09:01:58;;;;;;;7.80;4.87;;;;;;;;;;4974098;28;20204;-67
2022/08/25 09:04:38;;;;;;;9.60;5.13;;;;;;;;;;4974289;28;20161;-67
2022/08/25 09:07:10;;;;;;;7.50;5.07;;;;;;;;;;4972658;28;20708;-67
2022/08/25 09:09:36;;;;;;;5.27;4.70;;;;;;;;;;4974347;28;20745;-68
2022/08/25 09:12:05;;;;;;;7.43;5.43;;;;;;;;;;4974147;28;20177;-67
2022/08/25 09:14:34;;;;;;;7.60;5.00;;;;;;;;;;4974158;28;20700;-67
2022/08/25 09:17:04;;;;;;;14.90;5.03;;;;;;;;;;4972673;28;20201;-67
2022/08/25 09:19:30;;;;;;;8.17;4.50;;;;;;;;;;4972827;28;20177;-67
2022/08/25 09:22:02;;;;;;;7.80;4.73;;;;;;;;;;4974177;28;20227;-68
2022/08/25 09:24:34;;;;;;;9.07;5.27;;;;;;;;;;4973976;28;20236;-67
2022/08/25 09:27:06;;;;;;;7.97;5.17;;;;;;;;;;4973810;28;20248;-67
2022/08/25 09:29:47;;;;;;;16.77;5.03;;;;;;;;;;4972698;28;20249;-67
2022/08/25 09:32:14;;;;;;;10.50;5.20;;;;;;;;;;4973913;28;20248;-68
2022/08/25 09:34:40;;;;;;;6.97;4.57;;;;;;;;;;4973801;28;20193;-68
2022/08/25 09:37:06;;;;;;;8.57;4.60;;;;;;;;;;4973786;28;20216;-67
2022/08/25 09:39:32;;;;;;;5.73;4.80;;;;;;;;;;4972507;28;20611;-68
2022/08/25 09:41:59;;;;;;;8.63;5.00;;;;;;;;;;4973769;28;20285;-67
2022/08/25 09:44:35;;;;;;;7.80;4.53;;;;;;;;;;4974001;28;20592;-67
2022/08/25 09:47:06;;;;;;;5.20;4.67;;;;;;;;;;4975317;28;20283;-68
2022/08/25 09:49:32;;;;;;;6.93;4.80;;;;;;;;;;4977553;28;20174;-68
2022/08/25 09:52:16;;;;;;;7.87;4.60;;;;;;;;;;4977495;28;20181;-67
2022/08/25 09:54:42;;;;;;;5.83;4.90;;;;;;;;;;4977866;28;20174;-68
2022/08/25 09:57:07;;;;;;;7.83;4.47;;;;;;;;;;4977180;28;20209;-68
2022/08/25 09:59:35;;;;;;;9.03;4.80;;;;;;;;;;4977164;28;20243;-68
2022/08/25 10:02:19;;;;;;;9.20;5.17;;;;;;;;;;4977637;28;20204;-68
2022/08/25 10:04:45;;;;;;;7.40;5.17;;;;;;;;;;4977040;28;20176;-67
2022/08/25 10:07:28;;;;;;;4.70;4.00;;;;;;;;;;4976886;28;20221;-68
2022/08/25 10:09:55;;;;;;;8.03;4.50;;;;;;;;;;4976905;28;20208;-68
2022/08/25 10:12:24;;;;;;;11.30;4.67;;;;;;;;;;4976949;28;20680;-67
2022/08/25 10:14:50;;;;;;;5.83;4.17;;;;;;;;;;4977151;28;20197;-67
2022/08/25 10:17:30;;;;;;;7.27;4.50;;;;;;;;;;4976863;28;20287;-68
2022/08/25 10:20:15;;;;;;;8.27;5.03;;;;;;;;;;4975559;28;20196;-68
2022/08/25 10:22:42;;;;;;;8.97;4.63;;;;;;;;;;4976766;28;20197;-68
2022/08/25 10:25:10;;;;;;;7.40;4.67;;;;;;;;;;4975384;28;20181;-68
2022/08/25 10:27:56;;;;;;;7.77;4.77;;;;;;;;;;4976709;28;20304;-67
2022/08/25 10:30:24;;;;;;;7.30;5.10;;;;;;;;;;4976738;28;20232;-68
2022/08/25 10:32:50;;;;;;;5.90;4.70;;;;;;;;;;4976777;28;20177;-68
2022/08/25 10:35:17;;;;;;;6.30;5.10;;;;;;;;;;4976760;28;20236;-67
2022/08/25 10:37:54;;;;;;;9.68;5.50;;;;;;;;;;4974149;28;20730;-67
2022/08/25 10:40:23;;;;;;;5.50;4.95;;;;;;;;;;4974206;28;20387;-67
2022/08/25 10:42:58;;;;;;;9.60;5.07;;;;;;;;;;4976430;28;20193;-67
2022/08/25 10:45:43;;;;;;;9.00;4.65;;;;;;;;;;4976722;28;20230;-67
2022/08/25 10:48:18;;;;;;;6.03;4.90;;;;;;;;;;4976837;28;20161;-66
2022/08/25 10:50:44;;;;;;;7.13;4.47;;;;;;;;;;4976320;28;20224;-65
2022/08/25 10:53:22;;;;;;;8.05;4.88;;;;;;;;;;4976262;28;20588;-68
2022/08/25 10:56:02;;;;;;;6.32;4.72;;;;;;;;;;4976217;28;20197;-67
2022/08/25 10:58:46;;;;;;;7.80;4.32;;;;;;;;;;4975261;28;20169;-68
2022/08/25 11:01:30;;;;;;;5.60;4.68;;;;;;;;;;4975994;28;20613;-68
2022/08/25 11:03:58;;;;;;;8.43;5.07;;;;;;;;;;4974768;28;20205;-68
2022/08/25 11:06:34;;;;;;;10.32;4.90;;;;;;;;;;4975555;28;20217;-65
2022/08/25 11:09:03;;;;;;;5.65;4.57;;;;;;;;;;4976048;28;20161;-68
2022/08/25 11:11:38;;;;;;;6.03;4.88;;;;;;;;;;4975815;28;20185;-68
2022/08/25 11:14:37;;;;;;;6.25;4.72;;;;;;;;;;4975858;28;20191;-67
2022/08/25 11:17:10;;;;;;;10.63;4.80;;;;;;;;;;4943169;28;20220;-66
2022/08/25 11:19:42;;;;;;;7.70;4.63;;;;;;;;;;4975775;28;20174;-67
2022/08/25 11:22:24;;;;;;;7.72;4.80;;;;;;;;;;4975484;28;20247;-66
2022/08/25 11:25:07;;;;;;;5.13;4.63;;;;;;;;;;4975914;28;20201;-67
2022/08/25 11:27:37;;;;;;;5.22;4.30;;;;;;;;;;4974381;28;20550;-67
2022/08/25 11:30:07;;;;;;;6.72;4.70;;;;;;;;;;4976225;28;20212;-67
2022/08/25 11:32:34;;;;;;;6.03;4.55;;;;;;;;;;4974359;28;20232;-66
2022/08/25 11:35:01;;;;;;;7.25;4.10;;;;;;;;;;4975379;28;20187;-66
2022/08/25 11:37:29;;;;;;;5.00;4.22;;;;;;;;;;4975771;28;20611;-66
2022/08/25 11:40:01;;;;;;;8.52;4.57;;;;;;;;;;4974076;28;20191;-67
2022/08/25 11:42:42;;;;;;;5.47;4.03;;;;;;;;;;4975181;28;20712;-67
2022/08/25 11:45:20;;;;;;;5.25;4.28;;;;;;;;;;4975177;28;20229;-67
2022/08/25 11:47:53;;;;;;;5.07;4.57;;;;;;;;;;4975329;28;20672;-66
2022/08/25 11:50:31;;;;;;;7.85;4.68;;;;;;;;;;4975163;28;20169;-67
2022/08/25 11:53:17;;;;;;;6.10;4.22;;;;;;;;;;4973777;28;20212;-66
2022/08/25 11:55:43;;;;;;;7.07;4.03;;;;;;;;;;4968041;28;20244;-67
2022/08/25 11:58:15;;;;;;;3.90;3.60;;;;;;;;;;4975266;28;20209;-67
2022/08/25 12:00:42;;;;;;;9.60;4.90;;;;;;;;;;4974864;28;20181;-67
2022/08/25 12:03:41;;;;;;;4.50;4.07;;;;;;;;;;4975033;28;20228;-66
2022/08/25 12:06:30;;;;;;;12.93;4.40;;;;;;;;;;4941684;28;20221;-67
2022/08/25 12:09:02;;;;;;;5.32;4.03;;;;;;;;;;4974802;28;20162;-67
2022/08/25 12:11:46;;;;;;;6.53;3.78;;;;;;;;;;4974719;28;20267;-68
2022/08/25 12:14:21;;;;;;;4.25;3.85;;;;;;;;;;4974768;28;20177;-67
2022/08/25 12:16:50;;;;;;;4.30;3.70;;;;;;;;;;4975157;28;20215;-67
2022/08/25 12:19:35;;;;;;;4.93;3.67;;;;;;;;;;4974695;28;20232;-67
2022/08/25 12:22:01;;;;;;;6.78;3.97;;;;;;;;;;4974837;28;20287;-67
2022/08/25 12:24:42;;;;;;;4.47;4.00;;;;;;;;;;4974960;28;20204;-67
2022/08/25 12:27:14;;;;;;;5.60;3.70;;;;;;;;;;4974496;28;20197;-67
2022/08/25 12:29:42;;;;;;;6.80;4.07;;;;;;;;;;4973275;28;20696;-67
2022/08/25 12:32:39;;;;;;;4.90;4.20;;;;;;;;;;4974588;28;20713;-68
2022/08/25 12:35:11;;;;;;;8.00;4.15;;;;;;;;;;4974349;28;20193;-67
2022/08/25 12:37:53;;;;;;;4.68;3.95;;;;;;;;;;4974685;28;20208;-67
2022/08/25 12:40:34;;;;;;;4.40;4.00;;;;;;;;;;4973191;28;20173;-67
2022/08/25 12:43:03;;;;;;;6.03;4.30;;;;;;;;;;4974390;28;20738;-67
2022/08/25 12:45:37;;;;;;;8.90;4.43;;;;;;;;;;4974338;28;20291;-67
2022/08/25 12:48:22;;;;;;;4.57;3.50;;;;;;;;;;4974142;28;20181;-68
2022/08/25 12:50:56;;;;;;;4.32;3.70;;;;;;;;;;4974503;28;20177;-68
2022/08/25 12:53:35;;;;;;;7.60;3.67;;;;;;;;;;4974608;28;20184;-67
2022/08/25 12:56:04;;;;;;;8.07;3.88;;;;;;;;;;4974147;28;20223;-67
2022/08/25 12:58:53;;;;;;;3.92;3.60;;;;;;;;;;4973018;28;20192;-68
2022/08/25 13:01:32;;;;;;;4.10;3.70;;;;;;;;;;4974188;28;20196;-67
2022/08/25 13:04:22;;;;;;;4.03;3.53;;;;;;;;;;4973061;28;20640;-67
2022/08/25 13:07:03;;;;;;;4.13;3.83;;;;;;;;;;4972931;28;20223;-67
2022/08/25 13:09:29;;;;;;;5.22;3.88;;;;;;;;;;4974427;28;20181;-67
2022/08/25 13:12:00;;;;;;;9.57;3.72;;;;;;;;;;4974086;28;20236;-67
2022/08/25 13:14:40;;;;;;;8.77;3.70;;;;;;;;;;4974319;28;20172;-66
2022/08/25 13:17:07;;;;;;;6.57;3.95;;;;;;;;;;4973908;28;20205;-67
2022/08/25 13:19:33;;;;;;;4.03;3.72;;;;;;;;;;4974169;28;20184;-67
2022/08/25 13:22:01;;;;;;;3.75;3.45;;;;;;;;;;4974142;28;20208;-67
2022/08/25 13:24:33;;;;;;;4.93;3.20;;;;;;;;;;4978581;28;20224;-67
2022/08/25 13:27:00;;;;;;;4.07;3.78;;;;;;;;;;4977649;28;20205;-67
2022/08/25 13:29:28;;;;;;;10.43;3.72;;;;;;;;;;4976469;28;20224;-68
2022/08/25 13:31:56;;;;;;;5.18;3.20;;;;;;;;;;4977692;28;20192;-66
2022/08/25 13:34:27;;;;;;;4.93;3.45;;;;;;;;;;4976644;28;20615;-67
2022/08/25 13:39:38;;;;;;;5.25;3.03;;;;;;;;;;4978026;28;20195;-67
2022/08/25 13:42:06;;;;;;;5.82;3.30;;;;;;;;;;4976179;28;20197;-67
2022/08/25 13:44:35;;;;;;;4.50;3.50;;;;;;;;;;4976097;28;20189;-67
2022/08/25 13:47:07;;;;;;;3.90;3.60;;;;;;;;;;4977319;28;20197;-66
2022/08/25 13:49:34;;;;;;;3.88;3.50;;;;;;;;;;4976206;28;20177;-68
2022/08/25 13:52:00;;;;;;;5.22;3.88;;;;;;;;;;4977340;28;20177;-67
2022/08/25 13:54:31;;;;;;;4.20;3.80;;;;;;;;;;4977810;28;20184;-67
2022/08/25 13:57:04;;;;;;;4.60;3.60;;;;;;;;;;4977161;28;20207;-67
2022/08/25 13:59:36;;;;;;;6.40;4.40;;;;;;;;;;4975940;28;20181;-67
2022/08/25 14:02:02;;;;;;;7.47;3.53;;;;;;;;;;4975927;28;20208;-68
2022/08/25 14:04:44;;;;;;;4.22;3.47;;;;;;;;;;4977129;28;20244;-67
2022/08/25 14:07:19;;;;;;;3.88;3.58;;;;;;;;;;4975800;28;20236;-67
2022/08/25 14:09:55;;;;;;;4.35;3.63;;;;;;;;;;4975896;28;20227;-67
2022/08/25 14:12:27;;;;;;;4.68;3.20;;;;;;;;;;4977527;28;20525;-67
2022/08/25 14:14:57;;;;;;;3.60;3.30;;;;;;;;;;4977073;28;20283;-68
2022/08/25 14:17:23;;;;;;;4.82;3.70;;;;;;;;;;4977383;28;20200;-68
2022/08/25 14:19:49;;;;;;;4.43;3.55;;;;;;;;;;4977141;28;20184;-68
2022/08/25 14:22:15;;;;;;;4.15;3.80;;;;;;;;;;4975431;28;20299;-67
2022/08/25 14:24:41;;;;;;;3.67;3.38;;;;;;;;;;4977205;28;20181;-68
2022/08/25 14:27:07;;;;;;;4.22;3.83;;;;;;;;;;4976718;28;20753;-68
2022/08/25 14:29:33;;;;;;;3.72;3.50;;;;;;;;;;4976793;28;20673;-66
2022/08/25 14:31:59;;;;;;;4.25;3.95;;;;;;;;;;4976639;28;20724;-67
2022/08/25 14:34:26;;;;;;;4.80;3.50;;;;;;;;;;4974099;28;20177;-68
2022/08/25 14:36:53;;;;;;;4.22;3.80;;;;;;;;;;4976897;28;20203;-68
2022/08/25 14:39:19;;;;;;;5.05;4.00;;;;;;;;;;4975461;28;20657;-66
2022/08/25 14:41:45;;;;;;;4.25;3.80;;;;;;;;;;4976532;28;20205;-66
2022/08/25 14:44:12;;;;;;;3.92;3.63;;;;;;;;;;4976644;28;20220;-67
2022/08/25 14:46:41;;;;;;;6.15;3.78;;;;;;;;;;4976972;28;20669;-67
2022/08/25 14:49:09;;;;;;;4.13;3.80;;;;;;;;;;4976574;28;20712;-67
2022/08/25 14:51:35;;;;;;;4.53;4.05;;;;;;;;;;4976987;28;20287;-67
2022/08/25 14:54:03;;;;;;;6.80;4.38;;;;;;;;;;4975425;28;20181;-67
2022/08/25 14:56:29;;;;;;;5.90;4.38;;;;;;;;;;4976345;28;20211;-68
2022/08/25 14:58:56;;;;;;;4.60;4.20;;;;;;;;;;4976580;28;20181;-67
2022/08/25 15:01:23;;;;;;;7.13;4.15;;;;;;;;;;4978499;28;20221;-67
2022/08/25 15:03:51;;;;;;;5.15;4.13;;;;;;;;;;4976633;28;20178;-67